Terminal Aerodrome Forecast
Issued by NWS

Home | Current Version | Previous Version | Text Only | Print | Product List | Glossary On
Versions: 1 2 3 4 5 6 7 8 9 10 11 12 13 14
432
FTUS43 KPAH 211341 AAA
TAFCGI
TAF AMD
KCGI 211341Z 2114/2212 17009KT P6SM SCT060
     FM211500 17011G19KT P6SM BKN050 OVC150
     FM220600 16009G15KT P6SM BKN035 OVC120 PROB30 2206/2212 6SM
      SHRA BR BKN035=

USA.gov is the U.S. government's official web portal to all federal, state and local government web resources and services.